createdAt,value
2023-03-08T00:01:39.689Z,4.46
2023-03-08T00:11:42.821Z,4.39
2023-03-08T00:21:45.940Z,4.38
2023-03-08T00:31:50.825Z,4.45
2023-03-08T00:41:55.634Z,4.44
2023-03-08T00:51:58.728Z,4.53
2023-03-08T01:02:01.998Z,4.61
2023-03-08T01:12:05.637Z,4.61
2023-03-08T01:22:08.733Z,4.60
2023-03-08T01:32:12.073Z,4.60
2023-03-08T01:42:15.244Z,4.61
2023-03-08T01:52:27.107Z,4.57
2023-03-08T02:02:39.275Z,4.51
2023-03-08T02:12:43.224Z,4.39
2023-03-08T02:22:53.395Z,4.29
2023-03-08T02:32:59.010Z,4.29
2023-03-08T02:43:05.017Z,4.20
2023-03-08T02:53:08.342Z,4.14
2023-03-08T03:03:11.701Z,4.20
2023-03-08T03:13:14.909Z,4.20
2023-03-08T03:23:18.456Z,4.16
2023-03-08T03:33:26.925Z,4.05
2023-03-08T03:43:31.841Z,3.91
2023-03-08T03:53:36.655Z,3.72
2023-03-08T04:03:41.536Z,3.47
2023-03-08T04:13:46.320Z,3.29
2023-03-08T04:23:50.652Z,3.18
2023-03-08T04:33:55.775Z,2.93
2023-03-08T04:43:58.995Z,2.61
2023-03-08T04:54:16.864Z,2.50
2023-03-08T05:04:24.657Z,2.67
2023-03-08T05:14:28.593Z,2.88
2023-03-08T05:24:32.266Z,3.02
2023-03-08T05:34:37.947Z,3.08
2023-03-08T05:44:42.489Z,3.14
2023-03-08T05:54:47.970Z,3.37
2023-03-08T06:04:54.410Z,3.63
2023-03-08T06:14:59.818Z,3.79
2023-03-08T06:25:04.930Z,3.93
2023-03-08T06:35:11.242Z,4.11
2023-03-08T06:45:18.890Z,4.39
2023-03-08T06:55:22.355Z,4.78
2023-03-08T07:05:26.427Z,5.21
2023-03-08T07:15:29.865Z,5.77
2023-03-08T07:25:32.981Z,6.11
2023-03-08T07:35:39.886Z,6.25
2023-03-08T07:45:43.315Z,6.55
2023-03-08T07:55:46.457Z,6.96
2023-03-08T08:05:49.629Z,7.86
2023-03-08T08:16:01.040Z,8.39
2023-03-08T08:26:12.417Z,8.30
2023-03-08T08:36:20.706Z,7.97
2023-03-08T08:46:24.069Z,7.94
2023-03-08T08:56:29.016Z,8.12
2023-03-08T09:06:34.770Z,8.68
2023-03-08T09:16:39.397Z,8.96
2023-03-08T09:26:42.743Z,9.06
2023-03-08T09:36:45.925Z,9.20
2023-03-08T09:47:17.360Z,9.32
2023-03-08T09:57:29.119Z,9.67
2023-03-08T10:07:50.916Z,9.86
2023-03-08T10:18:05.194Z,9.82
2023-03-08T10:28:16.218Z,10.05
2023-03-08T10:38:19.553Z,10.50
2023-03-08T10:48:22.907Z,10.59
2023-03-08T10:58:40.395Z,10.62
2023-03-08T11:08:56.123Z,10.49
2023-03-08T11:19:20.430Z,10.42
2023-03-08T11:29:41.827Z,10.28
2023-03-08T11:39:59.250Z,10.24
2023-03-08T11:50:24.547Z,10.11
2023-03-08T12:00:43.111Z,10.22
2023-03-08T12:10:56.894Z,10.73
2023-03-08T12:21:32.784Z,11.34
2023-03-08T12:31:44.752Z,11.49
2023-03-08T12:42:01.612Z,11.38
2023-03-08T12:52:08.309Z,11.38
2023-03-08T13:02:27.281Z,11.47
2023-03-08T13:12:43.316Z,11.69
2023-03-08T13:23:18.837Z,11.29
2023-03-08T13:33:24.950Z,11.20
2023-03-08T13:43:32.377Z,11.07
2023-03-08T13:53:38.215Z,10.86
2023-03-08T14:03:43.316Z,10.66
2023-03-08T14:13:50.924Z,10.33
2023-03-08T14:24:02.495Z,9.98
2023-03-08T14:34:19.277Z,9.80
2023-03-08T14:44:28.152Z,9.56
2023-03-08T14:54:36.671Z,9.27
2023-03-08T15:04:40.778Z,9.02
2023-03-08T15:14:45.000Z,8.77
2023-03-08T15:24:48.348Z,8.53
2023-03-08T15:34:51.399Z,8.31
2023-03-08T15:44:55.638Z,7.96
2023-03-08T15:54:58.872Z,7.64
2023-03-08T16:05:03.227Z,7.41
2023-03-08T16:15:07.690Z,7.22
2023-03-08T16:25:10.846Z,6.96
2023-03-08T16:35:13.959Z,6.69
2023-03-08T16:45:17.331Z,6.54
2023-03-08T16:55:26.376Z,6.44
2023-03-08T17:05:29.791Z,6.39
2023-03-08T17:15:43.627Z,6.33
2023-03-08T17:25:47.080Z,6.29
2023-03-08T17:35:53.960Z,6.33
2023-03-08T17:46:04.888Z,6.36
2023-03-08T17:56:10.126Z,6.41
2023-03-08T18:06:33.786Z,6.47
2023-03-08T18:16:38.652Z,6.51
2023-03-08T18:26:41.707Z,6.59
2023-03-08T18:36:44.828Z,6.69
2023-03-08T18:46:48.013Z,6.72
2023-03-08T18:56:53.845Z,6.73
2023-03-08T19:06:56.934Z,6.62
2023-03-08T19:17:01.027Z,6.58
2023-03-08T19:27:06.342Z,6.60
2023-03-08T19:37:13.368Z,6.46
2023-03-08T19:47:20.220Z,6.25
2023-03-08T19:57:23.408Z,6.18
2023-03-08T20:07:26.589Z,6.29
2023-03-08T20:17:32.270Z,6.34
2023-03-08T20:27:38.030Z,6.29
2023-03-08T20:37:42.048Z,6.23
2023-03-08T20:47:47.697Z,6.26
2023-03-08T20:57:52.036Z,6.40
2023-03-08T21:07:55.499Z,6.58
2023-03-08T21:17:58.971Z,6.66
2023-03-08T21:28:02.104Z,6.86
2023-03-08T21:38:06.731Z,7.02
2023-03-08T21:48:10.295Z,7.16
2023-03-08T21:58:16.486Z,7.24
2023-03-08T22:08:19.559Z,7.25
2023-03-08T22:18:23.570Z,7.28
2023-03-08T22:28:26.662Z,7.19
2023-03-08T22:38:30.784Z,7.14
2023-03-08T22:48:36.533Z,7.13
2023-03-08T22:58:39.692Z,7.24
2023-03-08T23:08:43.054Z,7.41
2023-03-08T23:18:50.334Z,7.49
2023-03-08T23:28:56.922Z,7.49
2023-03-08T23:39:04.472Z,7.50
2023-03-08T23:49:09.610Z,7.51
2023-03-08T23:59:20.218Z,7.57
